< < Back
Terminal Aerodrome Forecast


Current Version              Previous Versions:   1  2  3  4  5  6  7  8  9  

Terminal Aerodrome Forecast

075
FTUS42 KFFC 301700
TAFCSG
TAF
KCSG 301729Z 3018/3118 03005KT P6SM SCT045 SCT250
     FM310300 07003KT P6SM SCT250
     FM311600 11004KT P6SM SCT040=

Latest METAR

609
SAUS70 KWBC 312200 RRA
MTRCSG
METAR KCSG 312151Z 36006KT 10SM CLR 31/17 A2998 RMK AO2 SLP149
T03110167


USA.gov is the U.S. government's official web portal to all federal, state and local government web resources and services.